createdAt,value
2019-03-28T00:01:15.912Z,151904.00
2019-03-28T00:25:02.142Z,151884.33
2019-03-28T00:27:30.610Z,151902.69
2019-03-28T00:29:59.126Z,151898.72
2019-03-28T00:32:29.134Z,151898.72
2019-03-28T00:34:57.651Z,151901.37
2019-03-28T00:37:26.277Z,151888.23
2019-03-28T00:39:55.358Z,151901.37
2019-03-28T00:42:23.789Z,151883.02
2019-03-28T00:44:52.293Z,151889.59
2019-03-28T00:47:22.044Z,151898.72
2019-03-28T00:49:50.524Z,151910.56
2019-03-28T00:52:18.994Z,151921.06
2019-03-28T00:54:47.540Z,151905.30
2019-03-28T00:57:15.992Z,151901.37
2019-03-28T00:59:44.476Z,151906.59
2019-03-28T01:02:12.974Z,151901.37
2019-03-28T01:04:41.452Z,151897.42
2019-03-28T01:07:09.922Z,151884.33
2019-03-28T01:09:38.435Z,151902.69
2019-03-28T01:12:07.174Z,151901.37
2019-03-28T01:14:35.670Z,151879.11
2019-03-28T01:17:04.172Z,151902.69
2019-03-28T01:19:32.674Z,151896.12
2019-03-28T01:22:01.342Z,151877.75
2019-03-28T01:24:29.799Z,151890.91
2019-03-28T01:26:58.956Z,151881.72
2019-03-28T01:29:28.098Z,151894.81
2019-03-28T01:31:56.562Z,151867.27
2019-03-28T01:34:25.051Z,151883.02
2019-03-28T01:36:53.516Z,151901.37
2019-03-28T01:39:22.002Z,151894.81
2019-03-28T01:41:50.472Z,151896.12
2019-03-28T01:44:18.966Z,151890.91
2019-03-28T01:46:47.434Z,151901.37
2019-03-28T01:49:15.930Z,151902.69
2019-03-28T01:51:44.396Z,151884.33
2019-03-28T01:54:12.896Z,151888.23
2019-03-28T01:56:41.361Z,151884.33
2019-03-28T01:59:09.855Z,151872.53
2019-03-28T02:01:38.325Z,151888.23
2019-03-28T02:04:06.790Z,151860.75
2019-03-28T02:06:35.308Z,151864.66
2019-03-28T02:09:06.112Z,151871.22
2019-03-28T02:11:34.833Z,151877.75
2019-03-28T02:14:03.342Z,151859.44
2019-03-28T02:16:31.805Z,151862.05
2019-03-28T02:19:00.279Z,151864.66
2019-03-28T02:21:28.767Z,151869.92
2019-03-28T02:23:57.238Z,151873.84
2019-03-28T02:26:25.738Z,151869.92
2019-03-28T02:28:54.245Z,151868.63
2019-03-28T02:31:22.742Z,151865.97
2019-03-28T02:33:51.223Z,151847.66
2019-03-28T02:36:19.722Z,151851.56
2019-03-28T02:38:48.197Z,151860.75
2019-03-28T02:41:16.765Z,151868.63
2019-03-28T02:43:45.598Z,151863.34
2019-03-28T02:46:14.326Z,151855.47
2019-03-28T02:48:42.803Z,151867.27
2019-03-28T02:51:11.308Z,151858.13
2019-03-28T02:53:39.877Z,151865.97
2019-03-28T02:56:08.371Z,151872.53
2019-03-28T02:58:37.107Z,151868.63
2019-03-28T03:01:05.623Z,151859.44
2019-03-28T03:03:34.109Z,151856.78
2019-03-28T03:06:02.610Z,151850.25
2019-03-28T03:08:31.090Z,151848.95
2019-03-28T03:10:59.581Z,151862.05
2019-03-28T03:13:28.056Z,151851.56
2019-03-28T03:15:56.967Z,151856.78
2019-03-28T03:18:25.740Z,151859.44
2019-03-28T03:20:54.234Z,151859.44
2019-03-28T03:23:22.709Z,151859.44
2019-03-28T03:25:51.208Z,151854.17
2019-03-28T03:28:19.696Z,151830.59
2019-03-28T03:30:48.189Z,151851.56
2019-03-28T03:33:16.753Z,151855.47
2019-03-28T03:35:45.214Z,151858.13
2019-03-28T03:38:13.699Z,151859.44
2019-03-28T03:40:42.172Z,151841.08
2019-03-28T03:43:11.142Z,151841.08
2019-03-28T03:45:39.621Z,151856.78
2019-03-28T03:48:08.115Z,151846.30
2019-03-28T03:50:36.596Z,151829.28
2019-03-28T03:53:05.116Z,151843.69
2019-03-28T03:55:33.557Z,151835.81
2019-03-28T03:58:15.626Z,151847.66
2019-03-28T04:00:36.685Z,151835.81
2019-03-28T04:03:05.374Z,151841.08
2019-03-28T04:05:34.001Z,151841.08
2019-03-28T04:08:02.488Z,151838.47
2019-03-28T04:10:31.030Z,151827.98
2019-03-28T04:12:59.532Z,151838.47
2019-03-28T04:15:28.025Z,151834.50
2019-03-28T04:17:56.528Z,151842.38
2019-03-28T04:20:25.338Z,151839.78
2019-03-28T04:22:54.046Z,151851.56
2019-03-28T04:25:23.086Z,151848.95
2019-03-28T04:27:51.571Z,151835.81
2019-03-28T04:30:20.054Z,151843.69
2019-03-28T04:32:48.517Z,151848.95
2019-03-28T04:35:17.004Z,151841.08
2019-03-28T04:37:45.489Z,151843.69
2019-03-28T04:40:14.038Z,151833.20
2019-03-28T04:42:45.566Z,151841.08
2019-03-28T04:45:12.871Z,151846.30
2019-03-28T04:47:41.335Z,151835.81
2019-03-28T04:50:10.764Z,151838.47
2019-03-28T04:52:39.233Z,151838.47
2019-03-28T04:55:07.789Z,151835.81
2019-03-28T04:57:36.264Z,151822.72
2019-03-28T05:00:07.339Z,151833.20
2019-03-28T05:02:35.922Z,151820.11
2019-03-28T05:05:06.494Z,151817.50
2019-03-28T05:07:35.092Z,151829.28
2019-03-28T05:10:04.653Z,151841.08
2019-03-28T05:12:33.119Z,151844.98
2019-03-28T05:15:01.624Z,151835.81
2019-03-28T05:17:30.109Z,151835.81
2019-03-28T05:19:58.588Z,151842.38
2019-03-28T05:22:27.064Z,151835.81
2019-03-28T05:24:55.550Z,151835.81
2019-03-28T05:27:24.030Z,151835.81
2019-03-28T05:29:52.514Z,151837.16
2019-03-28T05:32:20.984Z,151835.81
2019-03-28T05:34:49.470Z,151846.30
2019-03-28T05:37:17.939Z,151846.30
2019-03-28T05:39:46.433Z,151833.20
2019-03-28T05:42:14.902Z,151817.50
2019-03-28T05:44:43.395Z,151830.59
2019-03-28T05:47:11.866Z,151835.81
2019-03-28T05:49:40.361Z,151830.59
2019-03-28T05:52:11.637Z,151843.69
2019-03-28T05:54:39.048Z,151844.98
2019-03-28T05:57:07.516Z,151846.30
2019-03-28T05:59:36.004Z,151846.30
2019-03-28T06:02:04.477Z,151851.56
2019-03-28T06:04:32.979Z,151848.95
2019-03-28T06:07:01.448Z,151852.88
2019-03-28T06:09:29.944Z,151835.81
2019-03-28T06:11:58.404Z,151846.30
2019-03-28T06:14:26.895Z,151858.13
2019-03-28T06:16:55.363Z,151864.66
2019-03-28T06:19:23.852Z,151851.56
2019-03-28T06:21:52.324Z,151862.05
2019-03-28T06:24:20.784Z,151859.44
2019-03-28T06:26:50.109Z,151873.84
2019-03-28T06:29:24.049Z,151872.53
2019-03-28T06:31:55.131Z,151880.41
2019-03-28T06:34:19.180Z,151872.53
2019-03-28T06:36:47.659Z,151883.02
2019-03-28T06:39:16.503Z,151898.72
2019-03-28T06:41:45.224Z,151873.84
2019-03-28T06:44:13.713Z,151885.62
2019-03-28T06:46:42.193Z,151884.33
2019-03-28T06:49:10.677Z,151897.42
2019-03-28T06:51:39.148Z,151893.50
2019-03-28T06:54:07.616Z,151894.81
2019-03-28T06:56:36.112Z,151907.91
2019-03-28T06:59:04.568Z,151911.88
2019-03-28T07:01:33.056Z,151921.06
2019-03-28T07:04:01.540Z,151919.75
2019-03-28T07:06:30.041Z,151927.58
2019-03-28T07:08:58.521Z,151917.09
2019-03-28T07:11:27.025Z,151909.27
2019-03-28T07:13:55.496Z,151917.09
2019-03-28T07:16:23.987Z,151930.23
2019-03-28T07:18:52.464Z,151918.39
2019-03-28T07:21:20.961Z,151940.72
2019-03-28T07:23:49.425Z,151930.23
2019-03-28T07:26:17.915Z,151943.34
2019-03-28T07:28:46.385Z,151938.06
2019-03-28T07:31:14.880Z,151952.52
2019-03-28T07:33:43.349Z,151922.36
2019-03-28T07:36:11.842Z,151956.44
2019-03-28T07:38:40.318Z,151947.25
2019-03-28T07:41:08.815Z,151964.31
2019-03-28T07:43:37.277Z,151953.81
2019-03-28T07:46:05.761Z,151953.81
2019-03-28T07:48:34.247Z,151964.31
2019-03-28T07:51:02.734Z,151980.02
2019-03-28T07:53:31.213Z,151972.19
2019-03-28T07:55:59.704Z,151974.80
2019-03-28T07:58:28.168Z,151980.02
2019-03-28T08:00:56.663Z,151995.78
2019-03-28T08:03:25.147Z,151986.59
2019-03-28T08:05:54.484Z,151987.91
2019-03-28T08:08:23.090Z,152007.58
2019-03-28T08:10:51.589Z,152018.06
2019-03-28T08:13:20.123Z,152027.25
2019-03-28T08:15:48.622Z,152037.75
2019-03-28T08:18:17.087Z,152039.05
2019-03-28T08:20:45.589Z,152032.47
2019-03-28T08:23:14.090Z,152056.12
2019-03-28T08:25:42.558Z,152037.75
2019-03-28T08:28:11.037Z,152041.66
2019-03-28T08:30:40.313Z,152082.33
2019-03-28T08:33:09.253Z,152086.28
2019-03-28T08:35:38.390Z,152099.39
2019-03-28T08:38:10.087Z,152098.09
2019-03-28T08:40:40.251Z,152113.81
2019-03-28T08:43:08.997Z,152109.89
2019-03-28T08:45:37.505Z,152090.20
2019-03-28T08:48:06.051Z,152087.59
2019-03-28T08:50:34.539Z,152104.63
2019-03-28T08:53:03.277Z,152147.95
2019-03-28T08:55:31.742Z,152179.44
2019-03-28T08:58:00.224Z,152200.48
2019-03-28T09:00:35.330Z,152210.97
2019-03-28T09:02:58.915Z,152212.28
2019-03-28T09:05:27.453Z,152176.78
2019-03-28T09:07:55.938Z,152166.28
2019-03-28T09:10:24.423Z,152161.06
2019-03-28T09:12:52.901Z,152149.25
2019-03-28T09:15:21.546Z,152166.28
2019-03-28T09:17:50.029Z,152157.14
2019-03-28T09:20:18.566Z,152150.56
2019-03-28T09:22:47.058Z,152166.28
2019-03-28T09:25:15.710Z,152174.16
2019-03-28T09:27:44.248Z,152187.33
2019-03-28T09:30:13.314Z,152163.67
2019-03-28T09:32:41.827Z,152166.28
2019-03-28T09:35:12.981Z,152164.97
2019-03-28T09:37:41.464Z,152170.25
2019-03-28T09:40:10.001Z,152137.45
2019-03-28T09:42:38.495Z,152147.95
2019-03-28T09:45:08.104Z,152137.45
2019-03-28T09:47:36.609Z,152166.28
2019-03-28T09:50:07.023Z,152179.44
2019-03-28T09:52:35.565Z,152171.56
2019-03-28T09:55:04.830Z,152171.56
2019-03-28T09:57:33.327Z,152178.12
2019-03-28T10:00:01.806Z,152187.33
2019-03-28T10:02:30.291Z,152192.59
2019-03-28T10:04:58.757Z,152203.09
2019-03-28T10:07:27.256Z,152208.31
2019-03-28T10:09:55.964Z,152205.70
2019-03-28T10:12:24.598Z,152184.66
2019-03-28T10:14:53.069Z,152171.56
2019-03-28T10:17:21.559Z,152166.28
2019-03-28T10:19:50.021Z,152197.81
2019-03-28T10:22:18.522Z,152187.33
2019-03-28T10:24:46.986Z,152171.56
2019-03-28T10:27:15.472Z,152179.44
2019-03-28T10:29:44.015Z,152179.44
2019-03-28T10:32:12.496Z,152191.28
2019-03-28T10:34:41.034Z,152180.75
2019-03-28T10:37:09.532Z,152184.66
2019-03-28T10:39:38.000Z,152188.67
2019-03-28T10:42:06.563Z,152208.31
2019-03-28T10:44:35.034Z,152221.47
2019-03-28T10:47:04.995Z,152238.50
2019-03-28T10:49:33.778Z,152237.19
2019-03-28T10:52:04.067Z,152231.97
2019-03-28T10:54:32.452Z,152235.89
2019-03-28T10:57:12.909Z,152243.78
2019-03-28T10:59:31.152Z,152224.09
2019-03-28T11:01:59.638Z,152255.59
2019-03-28T11:04:28.122Z,152255.59
2019-03-28T11:06:56.604Z,152249.00
2019-03-28T11:09:25.080Z,152252.97
2019-03-28T11:11:53.567Z,152259.50
2019-03-28T11:14:22.058Z,152271.36
2019-03-28T11:16:50.527Z,152293.66
2019-03-28T11:19:19.015Z,152281.86
2019-03-28T11:21:47.661Z,152318.59
2019-03-28T11:24:16.144Z,152373.72
2019-03-28T11:26:44.626Z,152413.11
2019-03-28T11:29:13.108Z,152389.48
2019-03-28T11:31:47.780Z,152415.78
2019-03-28T11:34:11.812Z,152355.38
2019-03-28T11:36:40.269Z,152331.70
2019-03-28T11:39:08.761Z,152373.72
2019-03-28T11:41:37.216Z,152385.56
2019-03-28T11:44:05.707Z,152368.48
2019-03-28T11:46:34.177Z,152381.59
2019-03-28T11:49:02.665Z,152347.47
2019-03-28T11:51:31.140Z,152360.59
2019-03-28T11:53:59.643Z,152318.59
2019-03-28T11:56:28.484Z,152352.70
2019-03-28T11:58:56.976Z,152329.09
2019-03-28T12:01:25.448Z,152334.36
2019-03-28T12:03:53.949Z,152344.86
2019-03-28T12:06:22.414Z,152352.70
2019-03-28T12:08:50.906Z,152334.36
2019-03-28T12:11:19.399Z,152306.78
2019-03-28T12:13:47.900Z,152322.50
2019-03-28T12:16:16.983Z,152326.47
2019-03-28T12:18:45.639Z,152326.47
2019-03-28T12:21:14.109Z,152318.59
2019-03-28T12:23:42.604Z,152326.47
2019-03-28T12:26:11.075Z,152312.00
2019-03-28T12:28:39.567Z,152317.28
2019-03-28T12:31:08.037Z,152298.89
2019-03-28T12:33:36.529Z,152287.08
2019-03-28T12:36:05.001Z,152305.47
2019-03-28T12:38:33.496Z,152317.28
2019-03-28T12:41:01.976Z,152310.69
2019-03-28T12:43:30.498Z,152305.47
2019-03-28T12:45:58.962Z,152315.97
2019-03-28T12:48:27.456Z,152315.97
2019-03-28T12:50:58.939Z,152306.78
2019-03-28T12:53:26.145Z,152300.19
2019-03-28T12:55:54.608Z,152305.47
2019-03-28T12:58:23.364Z,152305.47
2019-03-28T13:00:51.823Z,152292.36
2019-03-28T13:03:20.308Z,152310.69
2019-03-28T13:05:48.778Z,152302.86
2019-03-28T13:08:17.767Z,152308.08
2019-03-28T13:10:46.513Z,152302.86
2019-03-28T13:13:15.921Z,152310.69
2019-03-28T13:15:44.395Z,152294.97
2019-03-28T13:18:12.884Z,152277.89
2019-03-28T13:20:41.344Z,152309.39
2019-03-28T13:23:09.851Z,152326.47
2019-03-28T13:25:38.322Z,152338.28
2019-03-28T13:28:06.779Z,152331.70
2019-03-28T13:30:35.266Z,152330.39
2019-03-28T13:33:03.739Z,152338.28
2019-03-28T13:35:34.948Z,152350.09
2019-03-28T13:38:02.503Z,152347.47
2019-03-28T13:40:30.991Z,152344.86
2019-03-28T13:42:59.473Z,152352.70
2019-03-28T13:45:27.958Z,152355.38
2019-03-28T13:47:56.425Z,152334.36
2019-03-28T13:50:25.081Z,152350.09
2019-03-28T13:52:53.541Z,152321.19
2019-03-28T13:55:22.023Z,152361.91
2019-03-28T13:57:52.247Z,152364.56
2019-03-28T14:00:23.761Z,152368.48
2019-03-28T14:02:57.281Z,152363.20
2019-03-28T14:05:22.523Z,152373.72
2019-03-28T14:07:50.995Z,152372.41
2019-03-28T14:10:21.751Z,152401.30
2019-03-28T14:12:49.693Z,152397.38
2019-03-28T14:15:18.240Z,152394.72
2019-03-28T14:17:46.704Z,152402.61
2019-03-28T14:20:15.927Z,152396.06
2019-03-28T14:22:44.406Z,152386.87
2019-03-28T14:25:13.075Z,152389.48
2019-03-28T14:27:41.573Z,152382.91
2019-03-28T14:30:11.381Z,152378.98
2019-03-28T14:32:52.459Z,152373.72
2019-03-28T14:35:10.632Z,152376.38
2019-03-28T14:37:40.764Z,152392.09
2019-03-28T14:40:11.019Z,152352.70
2019-03-28T14:42:40.719Z,152369.78
2019-03-28T14:45:09.906Z,152377.69
2019-03-28T14:47:38.441Z,152378.98
2019-03-28T14:50:08.730Z,152378.98
2019-03-28T14:52:37.204Z,152375.06
2019-03-28T14:55:06.707Z,152380.30
2019-03-28T14:57:35.946Z,152384.22
2019-03-28T15:00:09.928Z,152389.48
2019-03-28T15:02:38.421Z,152372.41
2019-03-28T15:05:07.120Z,152369.78
2019-03-28T15:07:35.617Z,152390.80
2019-03-28T15:10:06.845Z,152372.41
2019-03-28T15:12:35.338Z,152363.20
2019-03-28T15:15:05.647Z,152339.59
2019-03-28T15:17:34.138Z,152338.28
2019-03-28T15:20:02.720Z,152359.28
2019-03-28T15:22:31.200Z,152340.89
2019-03-28T15:24:59.677Z,152343.56
2019-03-28T15:27:28.171Z,152331.70
2019-03-28T15:29:56.634Z,152335.67
2019-03-28T15:32:25.136Z,152308.08
2019-03-28T15:34:53.619Z,152334.36
2019-03-28T15:37:22.100Z,152323.86
2019-03-28T15:39:50.560Z,152309.39
2019-03-28T15:42:19.055Z,152315.97
2019-03-28T15:44:47.508Z,152319.89
2019-03-28T15:47:16.009Z,152329.09
2019-03-28T15:49:44.469Z,152310.69
2019-03-28T15:52:13.051Z,152301.50
2019-03-28T15:54:41.683Z,152279.19
2019-03-28T15:57:10.291Z,152291.00
2019-03-28T15:59:38.772Z,152292.36
2019-03-28T16:02:07.700Z,152277.89
2019-03-28T16:04:36.184Z,152289.69
2019-03-28T16:07:04.683Z,152287.08
2019-03-28T16:09:33.173Z,152268.69
2019-03-28T16:12:03.003Z,152273.97
2019-03-28T16:14:31.676Z,152277.89
2019-03-28T16:17:00.156Z,152266.08
2019-03-28T16:19:28.642Z,152266.08
2019-03-28T16:21:57.113Z,152247.69
2019-03-28T16:24:25.607Z,152254.28
2019-03-28T16:26:54.069Z,152255.59
2019-03-28T16:29:22.566Z,152242.47
2019-03-28T16:31:51.644Z,152255.59
2019-03-28T16:34:20.304Z,152258.19
2019-03-28T16:36:48.772Z,152260.86
2019-03-28T16:39:17.269Z,152264.78
2019-03-28T16:41:45.728Z,152266.08
2019-03-28T16:44:14.215Z,152255.59
2019-03-28T16:46:42.696Z,152258.19
2019-03-28T16:49:11.178Z,152267.39
2019-03-28T16:51:39.652Z,152259.50
2019-03-28T16:54:08.105Z,152249.00
2019-03-28T16:56:36.599Z,152255.59
2019-03-28T16:59:05.102Z,152255.59
2019-03-28T17:01:33.694Z,152255.59
2019-03-28T17:04:02.196Z,152292.36
2019-03-28T17:06:31.212Z,152262.17
2019-03-28T17:09:00.742Z,152220.17
2019-03-28T17:11:29.211Z,152230.67
2019-03-28T17:13:57.710Z,152239.86
2019-03-28T17:16:26.178Z,152238.50
2019-03-28T17:18:54.668Z,152224.09
2019-03-28T17:21:23.468Z,152230.67
2019-03-28T17:23:52.097Z,152231.97
2019-03-28T17:26:20.567Z,152220.17
2019-03-28T17:28:49.154Z,152235.89
2019-03-28T17:31:18.871Z,152216.20
2019-03-28T17:33:47.559Z,152214.89
2019-03-28T17:36:16.048Z,152224.09
2019-03-28T17:38:44.540Z,152220.17
2019-03-28T17:41:13.008Z,152212.28
2019-03-28T17:43:41.915Z,152213.59
2019-03-28T17:46:12.329Z,152210.97
2019-03-28T17:48:40.743Z,152221.47
2019-03-28T17:51:09.692Z,152228.00
2019-03-28T17:53:38.385Z,152260.86
2019-03-28T17:56:06.896Z,152229.31
2019-03-28T17:58:35.367Z,152224.09
2019-03-28T18:01:04.144Z,152218.81
2019-03-28T18:03:32.610Z,152217.50
2019-03-28T18:06:01.117Z,152218.81
2019-03-28T18:08:29.606Z,152218.81
2019-03-28T18:11:00.355Z,152220.17
2019-03-28T18:13:28.310Z,152203.09
2019-03-28T18:15:56.810Z,152210.97
2019-03-28T18:18:25.285Z,152212.28
2019-03-28T18:20:53.778Z,152210.97
2019-03-28T18:23:22.261Z,152208.31
2019-03-28T18:25:50.857Z,152214.89
2019-03-28T18:28:19.387Z,152212.28
2019-03-28T18:30:47.882Z,152205.70
2019-03-28T18:33:16.353Z,152205.70
2019-03-28T18:35:44.846Z,152213.59
2019-03-28T18:38:13.501Z,152214.89
2019-03-28T18:40:41.999Z,152242.47
2019-03-28T18:43:10.476Z,152192.59
2019-03-28T18:45:38.975Z,152204.41
2019-03-28T18:48:09.147Z,152208.31
2019-03-28T18:50:40.947Z,152213.59
2019-03-28T18:53:08.933Z,152197.81
2019-03-28T18:55:37.428Z,152205.70
2019-03-28T18:58:05.961Z,152189.98
2019-03-28T19:00:34.476Z,152245.08
2019-03-28T19:03:02.960Z,152242.47
2019-03-28T19:05:31.455Z,152197.81
2019-03-28T19:08:00.142Z,152187.33
2019-03-28T19:10:30.378Z,152182.05
2019-03-28T19:12:58.856Z,152192.59
2019-03-28T19:15:27.855Z,152187.33
2019-03-28T19:17:56.373Z,152182.05
2019-03-28T19:20:25.416Z,152179.44
2019-03-28T19:22:54.031Z,152179.44
2019-03-28T19:25:23.908Z,152185.97
2019-03-28T19:27:52.388Z,152180.75
2019-03-28T19:30:29.569Z,152172.86
2019-03-28T19:32:58.034Z,152166.28
2019-03-28T19:35:32.835Z,152166.28
2019-03-28T19:37:58.300Z,152176.78
2019-03-28T19:40:26.962Z,152179.44
2019-03-28T19:42:55.438Z,152183.34
2019-03-28T19:45:36.146Z,152175.47
2019-03-28T19:48:05.762Z,152179.44
2019-03-28T19:50:34.416Z,152174.16
2019-03-28T19:53:02.917Z,152171.56
2019-03-28T19:55:31.396Z,152178.12
2019-03-28T19:57:59.881Z,152192.59
2019-03-28T20:00:28.526Z,152193.91
2019-03-28T20:03:00.245Z,152183.34
2019-03-28T20:05:27.226Z,152167.64
2019-03-28T20:07:55.717Z,152179.44
2019-03-28T20:10:24.217Z,152166.28
2019-03-28T20:12:52.697Z,152174.16
2019-03-28T20:15:21.167Z,152159.75
2019-03-28T20:17:49.670Z,152163.67
2019-03-28T20:20:18.307Z,152154.48
2019-03-28T20:22:46.888Z,152164.97
2019-03-28T20:25:15.437Z,152176.78
2019-03-28T20:27:43.929Z,152161.06
2019-03-28T20:30:12.840Z,152166.28
2019-03-28T20:32:41.802Z,152167.64
2019-03-28T20:35:10.994Z,152168.94
2019-03-28T20:37:39.600Z,152157.14
2019-03-28T20:40:08.608Z,152143.98
2019-03-28T20:42:37.111Z,152151.87
2019-03-28T20:45:08.229Z,152147.95
2019-03-28T20:47:36.796Z,152145.28
2019-03-28T20:50:07.509Z,152158.44
2019-03-28T20:52:36.065Z,152147.95
2019-03-28T20:55:06.716Z,152155.78
2019-03-28T20:57:35.941Z,152163.67
2019-03-28T21:00:08.474Z,152164.97
2019-03-28T21:02:37.265Z,152134.80
2019-03-28T21:05:09.531Z,152133.48
2019-03-28T21:07:38.081Z,152140.06
2019-03-28T21:10:07.590Z,152142.67
2019-03-28T21:12:36.048Z,152147.95
2019-03-28T21:15:08.010Z,152157.14
2019-03-28T21:17:36.482Z,152163.67
2019-03-28T21:20:07.317Z,152155.78
2019-03-28T21:22:35.801Z,152182.05
2019-03-28T21:25:06.429Z,152170.25
2019-03-28T21:27:34.901Z,152153.17
2019-03-28T21:30:03.568Z,152158.44
2019-03-28T21:32:32.036Z,152145.28
2019-03-28T21:35:00.554Z,152145.28
2019-03-28T21:37:29.184Z,152134.80
2019-03-28T21:39:57.690Z,152124.30
2019-03-28T21:42:26.149Z,152140.06
2019-03-28T21:44:54.653Z,152146.59
2019-03-28T21:47:23.130Z,152133.48
2019-03-28T21:49:51.622Z,152145.28
2019-03-28T21:52:20.092Z,152140.06
2019-03-28T21:54:48.655Z,152136.09
2019-03-28T21:57:17.142Z,152142.67
2019-03-28T21:59:45.620Z,152143.98
2019-03-28T22:02:14.084Z,152145.28
2019-03-28T22:04:42.582Z,152145.28
2019-03-28T22:07:11.045Z,152150.56
2019-03-28T22:09:39.991Z,152133.48
2019-03-28T22:12:08.607Z,152132.19
2019-03-28T22:14:37.087Z,152121.69
2019-03-28T22:17:05.601Z,152134.80
2019-03-28T22:19:34.052Z,152124.30
2019-03-28T22:22:02.525Z,152132.19
2019-03-28T22:24:31.012Z,152129.56
2019-03-28T22:26:59.482Z,152132.19
2019-03-28T22:29:27.980Z,152123.00
2019-03-28T22:31:56.951Z,152121.69
2019-03-28T22:34:25.723Z,152109.89
2019-03-28T22:36:57.689Z,152103.31
2019-03-28T22:39:24.425Z,152103.31
2019-03-28T22:41:52.917Z,152111.19
2019-03-28T22:44:21.398Z,152111.19
2019-03-28T22:46:49.881Z,152091.52
2019-03-28T22:49:18.402Z,152087.59
2019-03-28T22:51:46.880Z,152074.48
2019-03-28T22:54:15.367Z,152087.59
2019-03-28T22:56:43.836Z,152095.47
2019-03-28T22:59:12.327Z,152100.70
2019-03-28T23:01:40.801Z,152090.20
2019-03-28T23:04:09.291Z,152071.83
2019-03-28T23:06:37.762Z,152074.48
2019-03-28T23:09:07.404Z,152067.91
2019-03-28T23:11:35.954Z,152075.80
2019-03-28T23:14:04.714Z,152071.83
2019-03-28T23:16:33.192Z,152063.94
2019-03-28T23:19:01.747Z,152081.02
2019-03-28T23:21:30.234Z,152092.81
2019-03-28T23:23:58.727Z,152069.22
2019-03-28T23:26:27.242Z,152079.72
2019-03-28T23:28:55.717Z,152086.28
2019-03-28T23:31:24.224Z,152096.78
2019-03-28T23:33:52.708Z,152078.41
2019-03-28T23:36:21.215Z,152074.48
2019-03-28T23:38:49.679Z,152088.91
2019-03-28T23:41:18.183Z,152090.20
2019-03-28T23:43:46.671Z,152099.39
2019-03-28T23:46:15.144Z,152084.98
2019-03-28T23:48:43.635Z,152079.72
2019-03-28T23:51:12.156Z,152079.72
2019-03-28T23:53:40.688Z,152081.02
2019-03-28T23:56:09.203Z,152084.98
2019-03-28T23:58:37.681Z,152063.94
